createdAt,value
2022-08-16T00:02:30.516Z,99424.97
2022-08-16T00:04:59.868Z,99429.03
2022-08-16T00:07:29.158Z,99432.25
2022-08-16T00:09:57.495Z,99429.50
2022-08-16T00:12:26.725Z,99433.75
2022-08-16T00:14:56.909Z,99432.06
2022-08-16T00:17:25.263Z,99430.63
2022-08-16T00:19:54.929Z,99429.56
2022-08-16T00:22:25.110Z,99432.72
2022-08-16T00:24:55.546Z,99434.31
2022-08-16T00:27:23.528Z,99436.63
2022-08-16T00:30:00.590Z,99431.84
2022-08-16T00:32:35.270Z,99431.69
2022-08-16T00:35:01.903Z,99424.06
2022-08-16T00:37:57.296Z,99425.38
2022-08-16T00:40:34.307Z,99428.44
2022-08-16T00:43:04.372Z,99423.47
2022-08-16T00:45:36.240Z,99432.44
2022-08-16T00:48:30.610Z,99430.16
2022-08-16T00:50:56.726Z,99430.16
2022-08-16T00:53:23.575Z,99430.47
2022-08-16T00:55:54.958Z,99431.75
2022-08-16T00:58:34.351Z,99428.41
2022-08-16T01:01:02.149Z,99434.13
2022-08-16T01:03:35.033Z,99434.63
2022-08-16T01:06:39.679Z,99451.53
2022-08-16T01:08:52.831Z,99443.81
2022-08-16T01:11:25.060Z,99448.16
2022-08-16T01:13:59.214Z,99438.53
2022-08-16T01:16:28.839Z,99446.34
2022-08-16T01:19:17.619Z,99445.94
2022-08-16T01:21:54.319Z,99446.22
2022-08-16T01:24:53.992Z,99443.09
2022-08-16T01:27:31.607Z,99450.69
2022-08-16T01:30:20.292Z,99449.03
2022-08-16T01:33:01.872Z,99455.09
2022-08-16T01:35:36.250Z,99451.28
2022-08-16T01:38:34.351Z,99446.28
2022-08-16T01:41:13.405Z,99442.88
2022-08-16T01:43:47.822Z,99443.56
2022-08-16T01:46:39.632Z,99444.28
2022-08-16T01:49:14.363Z,99447.44
2022-08-16T01:51:44.585Z,99447.22
2022-08-16T01:54:13.475Z,99452.72
2022-08-16T01:56:43.144Z,99449.47
2022-08-16T01:59:15.426Z,99444.84
2022-08-16T02:01:43.094Z,99443.81
2022-08-16T02:04:11.177Z,99441.09
2022-08-16T02:06:40.510Z,99439.84
2022-08-16T02:09:14.769Z,99439.66
2022-08-16T02:11:53.206Z,99444.09
2022-08-16T02:14:26.625Z,99454.66
2022-08-16T02:16:56.706Z,99447.75
2022-08-16T02:19:59.859Z,99457.41
2022-08-16T02:22:35.076Z,99441.03
2022-08-16T02:25:10.651Z,99439.53
2022-08-16T02:27:40.945Z,99438.09
2022-08-16T02:30:37.014Z,99442.09
2022-08-16T02:33:01.083Z,99444.41
2022-08-16T02:35:29.679Z,99440.59
2022-08-16T02:37:56.454Z,99444.41
2022-08-16T02:40:28.758Z,99434.28
2022-08-16T02:42:56.355Z,99438.94
2022-08-16T02:45:27.813Z,99437.72
2022-08-16T02:48:00.183Z,99438.16
2022-08-16T02:50:55.093Z,99437.75
2022-08-16T02:53:18.252Z,99444.72
2022-08-16T02:55:50.409Z,99440.34
2022-08-16T02:58:17.337Z,99445.38
2022-08-16T03:00:45.563Z,99440.34
2022-08-16T03:03:17.923Z,99441.81
2022-08-16T03:05:50.008Z,99439.31
2022-08-16T03:08:50.873Z,99441.19
2022-08-16T03:11:16.931Z,99442.06
2022-08-16T03:13:56.472Z,99448.78
2022-08-16T03:16:38.182Z,99445.00
2022-08-16T03:19:07.380Z,99460.53
2022-08-16T03:21:37.755Z,99454.44
2022-08-16T03:24:28.454Z,99455.69
2022-08-16T03:26:57.878Z,99459.50
2022-08-16T03:29:29.869Z,99460.97
2022-08-16T03:31:58.963Z,99463.69
2022-08-16T03:34:26.477Z,99468.28
2022-08-16T03:36:53.239Z,99464.72
2022-08-16T03:39:20.329Z,99472.91
2022-08-16T03:41:50.313Z,99480.66
2022-08-16T03:44:44.207Z,99484.44
2022-08-16T03:47:04.754Z,99490.50
2022-08-16T03:49:37.408Z,99491.97
2022-08-16T03:52:04.582Z,99486.53
2022-08-16T03:54:31.202Z,99488.44
2022-08-16T03:56:59.012Z,99495.56
2022-08-16T03:59:29.284Z,99496.81
2022-08-16T04:01:56.617Z,99498.28
2022-08-16T04:04:32.472Z,99499.94
2022-08-16T04:07:02.879Z,99491.31
2022-08-16T04:09:35.212Z,99504.97
2022-08-16T04:12:11.379Z,99501.19
2022-08-16T04:14:51.685Z,99502.00
2022-08-16T04:17:18.370Z,99499.25
2022-08-16T04:19:46.810Z,99506.19
2022-08-16T04:22:14.029Z,99493.81
2022-08-16T04:24:53.262Z,99493.34
2022-08-16T04:27:21.687Z,99488.31
2022-08-16T04:29:52.270Z,99491.69
2022-08-16T04:32:19.573Z,99493.75
2022-08-16T04:34:46.830Z,99489.75
2022-08-16T04:37:14.510Z,99494.81
2022-08-16T04:39:47.242Z,99492.31
2022-08-16T04:42:26.462Z,99493.53
2022-08-16T04:44:57.657Z,99498.38
2022-08-16T04:47:33.516Z,99499.78
2022-08-16T04:50:06.580Z,99503.34
2022-08-16T04:52:35.978Z,99504.16
2022-08-16T04:55:09.559Z,99500.97
2022-08-16T04:57:38.418Z,99502.59
2022-08-16T05:00:31.751Z,99488.47
2022-08-16T05:02:58.882Z,99495.75
2022-08-16T05:05:26.049Z,99500.53
2022-08-16T05:08:00.373Z,99509.31
2022-08-16T05:10:29.469Z,99513.28
2022-08-16T05:12:57.863Z,99517.84
2022-08-16T05:15:25.253Z,99523.22
2022-08-16T05:17:58.488Z,99526.31
2022-08-16T05:20:38.925Z,99533.38
2022-08-16T05:23:15.073Z,99523.84
2022-08-16T05:25:48.331Z,99525.91
2022-08-16T05:28:16.470Z,99525.09
2022-08-16T05:30:43.366Z,99525.91
2022-08-16T05:33:16.685Z,99523.34
2022-08-16T05:35:55.585Z,99530.56
2022-08-16T05:38:33.095Z,99531.16
2022-08-16T05:41:06.995Z,99523.88
2022-08-16T05:43:43.309Z,99515.66
2022-08-16T05:46:30.108Z,99514.13
2022-08-16T05:49:05.862Z,99520.28
2022-08-16T05:51:38.211Z,99517.34
2022-08-16T05:54:07.999Z,99517.03
2022-08-16T05:56:37.697Z,99519.66
2022-08-16T05:59:06.505Z,99505.56
2022-08-16T06:01:38.496Z,99511.53
2022-08-16T06:04:13.743Z,99523.88
2022-08-16T06:06:56.575Z,99522.03
2022-08-16T06:09:25.236Z,99518.34
2022-08-16T06:11:52.369Z,99521.38
2022-08-16T06:14:19.566Z,99537.22
2022-08-16T06:16:50.834Z,99527.00
2022-08-16T06:19:18.113Z,99526.31
2022-08-16T06:21:45.349Z,99527.84
2022-08-16T06:24:53.294Z,99520.09
2022-08-16T06:26:58.742Z,99520.13
2022-08-16T06:29:25.308Z,99526.97
2022-08-16T06:31:53.459Z,99524.78
2022-08-16T06:34:55.983Z,99513.47
2022-08-16T06:37:07.541Z,99514.28
2022-08-16T06:39:34.794Z,99506.28
2022-08-16T06:42:18.338Z,99514.22
2022-08-16T06:44:45.744Z,99513.16
2022-08-16T06:47:17.048Z,99515.84
2022-08-16T06:49:47.900Z,99510.91
2022-08-16T06:53:00.697Z,99512.63
2022-08-16T06:55:12.791Z,99504.72
2022-08-16T06:57:40.734Z,99505.28
2022-08-16T07:00:24.210Z,99512.38
2022-08-16T07:02:53.808Z,99512.03
2022-08-16T07:05:20.956Z,99512.75
2022-08-16T07:07:54.164Z,99522.28
2022-08-16T07:10:26.670Z,99523.50
2022-08-16T07:13:04.658Z,99524.75
2022-08-16T07:15:50.160Z,99522.16
2022-08-16T07:18:21.397Z,99526.97
2022-08-16T07:20:53.573Z,99529.81
2022-08-16T07:23:21.616Z,99529.88
2022-08-16T07:26:08.543Z,99515.66
2022-08-16T07:28:37.603Z,99523.72
2022-08-16T07:31:05.102Z,99527.69
2022-08-16T07:33:51.933Z,99535.50
2022-08-16T07:36:22.509Z,99543.31
2022-08-16T07:38:49.923Z,99543.88
2022-08-16T07:41:17.453Z,99556.00
2022-08-16T07:43:46.188Z,99550.81
2022-08-16T07:46:38.470Z,99549.22
2022-08-16T07:49:03.090Z,99552.59
2022-08-16T07:51:37.125Z,99543.59
2022-08-16T07:54:10.015Z,99544.97
2022-08-16T07:56:37.524Z,99548.06
2022-08-16T07:59:05.370Z,99537.91
2022-08-16T08:01:32.994Z,99543.22
2022-08-16T08:04:02.865Z,99548.19
2022-08-16T08:06:32.419Z,99552.41
2022-08-16T08:09:00.322Z,99545.84
2022-08-16T08:11:28.840Z,99551.16
2022-08-16T08:14:03.209Z,99553.66
2022-08-16T08:16:31.617Z,99562.25
2022-08-16T08:19:02.434Z,99559.28
2022-08-16T08:22:01.345Z,99554.13
2022-08-16T08:24:18.758Z,99555.88
2022-08-16T08:26:50.061Z,99555.59
2022-08-16T08:29:22.799Z,99562.78
2022-08-16T08:31:52.928Z,99562.53
2022-08-16T08:34:22.121Z,99559.84
2022-08-16T08:36:50.101Z,99566.56
2022-08-16T08:39:22.121Z,99564.44
2022-08-16T08:41:49.499Z,99570.34
2022-08-16T08:44:30.110Z,99564.34
2022-08-16T08:47:05.608Z,99567.75
2022-08-16T08:49:50.386Z,99566.09
2022-08-16T08:52:34.603Z,99557.88
2022-08-16T08:55:11.458Z,99557.38
2022-08-16T08:57:42.028Z,99552.16
2022-08-16T09:00:13.157Z,99546.09
2022-08-16T09:02:42.999Z,99545.84
2022-08-16T09:05:15.241Z,99549.19
2022-08-16T09:07:54.781Z,99545.03
2022-08-16T09:10:29.433Z,99552.00
2022-08-16T09:12:56.884Z,99550.91
2022-08-16T09:15:24.036Z,99554.47
2022-08-16T09:17:54.671Z,99548.66
2022-08-16T09:20:23.775Z,99541.44
2022-08-16T09:22:52.996Z,99537.81
2022-08-16T09:25:26.234Z,99537.81
2022-08-16T09:28:02.794Z,99535.59
2022-08-16T09:30:43.846Z,99528.63
2022-08-16T09:33:13.624Z,99528.03
2022-08-16T09:35:42.456Z,99527.97
2022-08-16T09:38:12.310Z,99522.06
2022-08-16T09:40:42.497Z,99528.41
2022-08-16T09:43:37.647Z,99528.88
2022-08-16T09:46:44.848Z,99516.25
2022-08-16T09:48:56.395Z,99518.91
2022-08-16T09:51:26.257Z,99525.66
2022-08-16T09:53:57.701Z,99525.75
2022-08-16T09:56:31.691Z,99523.66
2022-08-16T09:59:05.270Z,99514.09
2022-08-16T10:01:36.684Z,99517.53
2022-08-16T10:04:09.806Z,99513.50
2022-08-16T10:06:54.244Z,99515.09
2022-08-16T10:09:25.497Z,99509.94
2022-08-16T10:12:30.486Z,99503.66
2022-08-16T10:14:57.118Z,99500.91
2022-08-16T10:17:24.720Z,99495.31
2022-08-16T10:19:53.034Z,99489.44
2022-08-16T10:22:22.952Z,99495.28
2022-08-16T10:24:56.019Z,99500.00
2022-08-16T10:27:28.957Z,99495.78
2022-08-16T10:30:25.761Z,99494.47
2022-08-16T10:32:55.043Z,99493.34
2022-08-16T10:35:21.798Z,99498.41
2022-08-16T10:37:50.178Z,99493.66
2022-08-16T10:40:29.344Z,99497.34
2022-08-16T10:42:59.943Z,99500.97
2022-08-16T10:45:29.289Z,99500.59
2022-08-16T10:48:27.290Z,99489.63
2022-08-16T10:50:57.843Z,99490.53
2022-08-16T10:53:32.959Z,99499.47
2022-08-16T10:56:02.726Z,99493.16
2022-08-16T10:58:34.042Z,99492.69
2022-08-16T11:01:25.061Z,99496.81
2022-08-16T11:03:54.445Z,99479.06
2022-08-16T11:06:26.902Z,99487.66
2022-08-16T11:14:29.430Z,99483.53
2022-08-16T11:17:09.562Z,99484.44
2022-08-16T11:20:00.627Z,99475.88
2022-08-16T11:22:47.073Z,99481.88
2022-08-16T11:25:57.904Z,99483.91
2022-08-16T11:28:03.285Z,99504.97
2022-08-16T11:30:39.172Z,99526.41
2022-08-16T11:33:07.324Z,99560.16
2022-08-16T11:38:46.621Z,99643.13
2022-08-16T11:41:09.810Z,99629.81
2022-08-16T11:43:38.879Z,99613.19
2022-08-16T11:46:43.764Z,99602.03
2022-08-16T11:48:57.119Z,99596.22
2022-08-16T11:51:23.675Z,99590.69
2022-08-16T11:53:50.263Z,99576.53
2022-08-16T11:56:19.761Z,99557.66
2022-08-16T11:58:56.979Z,99535.94
2022-08-16T12:01:29.574Z,99533.19
2022-08-16T12:04:11.139Z,99527.53
2022-08-16T12:06:40.417Z,99519.72
2022-08-16T12:09:08.065Z,99510.66
2022-08-16T12:11:36.760Z,99517.88
2022-08-16T12:14:07.294Z,99511.22
2022-08-16T12:16:35.610Z,99514.06
2022-08-16T12:19:10.424Z,99511.41
2022-08-16T12:21:58.281Z,99511.63
2022-08-16T12:24:26.291Z,99512.31
2022-08-16T12:26:54.154Z,99518.81
2022-08-16T12:29:21.800Z,99511.78
2022-08-16T12:32:01.186Z,99513.84
2022-08-16T12:34:37.538Z,99504.84
2022-08-16T12:37:15.502Z,99510.16
2022-08-16T12:39:50.785Z,99508.81
2022-08-16T12:42:19.434Z,99504.84
2022-08-16T12:44:47.250Z,99505.00
2022-08-16T12:47:32.477Z,99508.78
2022-08-16T12:49:59.360Z,99500.31
2022-08-16T12:52:32.628Z,99509.38
2022-08-16T12:55:01.985Z,99512.75
2022-08-16T12:57:36.219Z,99513.66
2022-08-16T13:00:26.768Z,99510.72
2022-08-16T13:03:01.986Z,99508.00
2022-08-16T13:05:29.189Z,99509.50
2022-08-16T13:07:58.346Z,99503.19
2022-08-16T13:10:37.270Z,99500.09
2022-08-16T13:13:05.949Z,99488.69
2022-08-16T13:15:36.153Z,99477.44
2022-08-16T13:18:24.000Z,99483.16
2022-08-16T13:20:54.170Z,99480.13
2022-08-16T13:23:21.480Z,99476.34
2022-08-16T13:25:50.042Z,99479.47
2022-08-16T13:28:18.755Z,99479.56
2022-08-16T13:30:50.522Z,99474.25
2022-08-16T13:33:30.191Z,99470.63
2022-08-16T13:36:00.718Z,99466.25
2022-08-16T13:38:31.192Z,99479.31
2022-08-16T13:40:59.817Z,99483.59
2022-08-16T13:43:28.775Z,99480.38
2022-08-16T13:45:56.567Z,99490.03
2022-08-16T13:48:26.458Z,99481.31
2022-08-16T13:51:10.048Z,99469.94
2022-08-16T13:53:44.129Z,99477.09
2022-08-16T13:56:10.806Z,99474.66
2022-08-16T13:58:54.443Z,99468.53
2022-08-16T14:01:22.362Z,99464.38
2022-08-16T14:03:49.241Z,99464.53
2022-08-16T14:06:16.078Z,99460.50
2022-08-16T14:08:58.934Z,99452.75
2022-08-16T14:11:32.535Z,99445.16
2022-08-16T14:13:59.417Z,99438.75
2022-08-16T14:16:33.708Z,99442.19
2022-08-16T14:19:00.963Z,99444.19
2022-08-16T14:21:35.500Z,99446.03
2022-08-16T14:24:07.906Z,99444.31
2022-08-16T14:26:49.701Z,99445.28
2022-08-16T14:31:53.677Z,99441.03
2022-08-16T14:34:20.856Z,99446.16
2022-08-16T14:36:47.411Z,99444.19
2022-08-16T14:39:18.719Z,99446.44
2022-08-16T14:41:45.261Z,99447.59
2022-08-16T14:44:12.170Z,99453.22
2022-08-16T14:46:40.334Z,99443.22
2022-08-16T14:49:09.733Z,99455.22
2022-08-16T14:51:36.652Z,99444.59
2022-08-16T14:54:05.518Z,99456.28
2022-08-16T14:56:43.129Z,99471.59
2022-08-16T14:59:13.551Z,99471.94
2022-08-16T15:01:57.477Z,99476.59
2022-08-16T15:04:39.608Z,99480.47
2022-08-16T15:07:11.035Z,99488.75
2022-08-16T15:09:44.126Z,99498.13
2022-08-16T15:12:32.721Z,99500.81
2022-08-16T15:15:01.646Z,99507.69
2022-08-16T15:17:33.971Z,99509.22
2022-08-16T15:20:09.216Z,99507.91
2022-08-16T15:22:42.900Z,99505.72
2022-08-16T15:25:21.819Z,99505.94
2022-08-16T15:27:55.448Z,99503.50
2022-08-16T15:30:58.089Z,99504.22
2022-08-16T15:33:15.236Z,99497.47
2022-08-16T15:35:43.479Z,99496.50
2022-08-16T15:38:10.783Z,99501.47
2022-08-16T15:40:59.015Z,99496.44
2022-08-16T15:43:33.935Z,99493.47
2022-08-16T15:46:35.502Z,99484.84
2022-08-16T15:49:13.314Z,99484.84
2022-08-16T15:51:41.291Z,99489.06
2022-08-16T15:54:16.235Z,99487.09
2022-08-16T15:57:00.217Z,99481.13
2022-08-16T15:59:47.939Z,99476.41
2022-08-16T16:02:27.218Z,99478.22
2022-08-16T16:04:54.526Z,99481.75
2022-08-16T16:07:22.202Z,99481.69
2022-08-16T16:09:48.931Z,99488.66
2022-08-16T16:12:50.238Z,99482.69
2022-08-16T16:15:06.520Z,99491.75
2022-08-16T16:17:35.494Z,99491.38
2022-08-16T16:20:13.768Z,99500.53
2022-08-16T16:22:43.474Z,99506.97
2022-08-16T16:25:12.538Z,99501.19
2022-08-16T16:27:39.462Z,99512.03
2022-08-16T16:30:11.268Z,99504.69
2022-08-16T16:32:58.255Z,99512.44
2022-08-16T16:35:32.768Z,99511.56
2022-08-16T16:38:00.148Z,99503.97
2022-08-16T16:40:32.217Z,99504.34
2022-08-16T16:43:00.057Z,99498.66
2022-08-16T16:45:33.490Z,99494.94
2022-08-16T16:48:11.702Z,99493.38
2022-08-16T16:50:44.490Z,99495.31
2022-08-16T16:53:16.732Z,99488.28
2022-08-16T16:55:47.719Z,99491.75
2022-08-16T16:58:43.411Z,99498.72
2022-08-16T17:01:10.819Z,99508.31
2022-08-16T17:03:38.630Z,99508.53
2022-08-16T17:06:09.347Z,99502.50
2022-08-16T17:08:40.943Z,99502.31
2022-08-16T17:11:09.739Z,99510.13
2022-08-16T17:13:37.019Z,99516.25
2022-08-16T17:16:04.978Z,99546.53
2022-08-16T17:19:14.570Z,99546.84
2022-08-16T17:21:18.677Z,99544.72
2022-08-16T17:23:58.922Z,99545.00
2022-08-16T17:26:33.965Z,99542.59
2022-08-16T17:29:02.117Z,99555.03
2022-08-16T17:31:40.632Z,99563.19
2022-08-16T17:34:30.764Z,99573.34
2022-08-16T17:36:54.730Z,99579.97
2022-08-16T17:39:21.570Z,99576.59
2022-08-16T17:41:51.110Z,99583.22
2022-08-16T17:44:19.310Z,99586.47
2022-08-16T17:46:50.939Z,99590.34
2022-08-16T17:49:18.575Z,99587.59
2022-08-16T17:51:45.080Z,99587.88
2022-08-16T17:54:18.320Z,99588.28
2022-08-16T17:56:56.842Z,99587.16
2022-08-16T17:59:24.232Z,99605.19
2022-08-16T18:01:50.846Z,99603.00
2022-08-16T18:04:48.647Z,99608.63
2022-08-16T18:07:05.299Z,99613.56
2022-08-16T18:09:31.894Z,99616.94
2022-08-16T18:11:58.673Z,99607.00
2022-08-16T18:14:52.191Z,99618.69
2022-08-16T18:17:12.967Z,99621.75
2022-08-16T18:19:39.559Z,99623.94
2022-08-16T18:22:18.227Z,99619.25
2022-08-16T18:24:49.579Z,99622.56
2022-08-16T18:27:26.589Z,99620.91
2022-08-16T18:29:54.108Z,99622.00
2022-08-16T18:32:24.912Z,99615.88
2022-08-16T18:34:54.512Z,99614.19
2022-08-16T18:37:24.586Z,99625.75
2022-08-16T18:39:51.156Z,99627.66
2022-08-16T18:42:17.948Z,99625.09
2022-08-16T18:44:44.799Z,99615.72
2022-08-16T18:47:11.419Z,99625.00
2022-08-16T18:49:38.336Z,99623.34
2022-08-16T18:52:05.589Z,99631.56
2022-08-16T18:54:33.388Z,99632.63
2022-08-16T18:57:03.395Z,99642.78
2022-08-16T18:59:33.210Z,99629.97
2022-08-16T19:02:05.145Z,99626.03
2022-08-16T19:04:48.045Z,99633.97
2022-08-16T19:07:30.527Z,99635.25
2022-08-16T19:09:59.584Z,99630.38
2022-08-16T19:12:37.781Z,99623.03
2022-08-16T19:15:13.280Z,99625.09
2022-08-16T19:17:40.203Z,99625.28
2022-08-16T19:20:10.781Z,99627.72
2022-08-16T19:23:01.475Z,99629.78
2022-08-16T19:25:46.409Z,99630.13
2022-08-16T19:28:45.902Z,99635.81
2022-08-16T19:31:00.090Z,99637.53
2022-08-16T19:33:26.640Z,99635.31
2022-08-16T19:35:53.224Z,99642.69
2022-08-16T19:38:19.944Z,99639.41
2022-08-16T19:40:46.765Z,99643.84
2022-08-16T19:43:13.346Z,99640.03
2022-08-16T19:45:45.358Z,99642.44
2022-08-16T19:48:12.764Z,99644.91
2022-08-16T19:50:39.835Z,99646.75
2022-08-16T19:53:13.116Z,99636.03
2022-08-16T19:55:45.800Z,99642.72
2022-08-16T19:58:15.456Z,99641.81
2022-08-16T20:00:43.324Z,99638.91
2022-08-16T20:03:15.231Z,99643.59
2022-08-16T20:05:43.598Z,99640.63
2022-08-16T20:08:11.353Z,99644.69
2022-08-16T20:10:39.503Z,99643.50
2022-08-16T20:13:20.982Z,99646.50
2022-08-16T20:15:48.842Z,99647.00
2022-08-16T20:18:21.311Z,99651.41
2022-08-16T20:20:52.874Z,99652.72
2022-08-16T20:23:24.788Z,99654.66
2022-08-16T20:25:55.847Z,99652.97
2022-08-16T20:28:51.822Z,99655.69
2022-08-16T20:31:11.471Z,99659.81
2022-08-16T20:33:38.112Z,99661.47
2022-08-16T20:36:04.808Z,99655.25
2022-08-16T20:38:31.477Z,99663.16
2022-08-16T20:40:58.015Z,99674.28
2022-08-16T20:43:24.561Z,99657.47
2022-08-16T20:45:51.084Z,99662.00
2022-08-16T20:48:17.619Z,99661.78
2022-08-16T20:50:45.059Z,99657.84
2022-08-16T20:53:11.940Z,99666.44
2022-08-16T20:55:40.097Z,99671.13
2022-08-16T20:58:06.659Z,99666.09
2022-08-16T21:00:33.653Z,99667.88
2022-08-16T21:03:01.560Z,99664.16
2022-08-16T21:05:31.152Z,99662.94
2022-08-16T21:07:58.598Z,99663.09
2022-08-16T21:10:25.179Z,99667.72
2022-08-16T21:12:57.910Z,99670.72
2022-08-16T21:15:26.735Z,99667.97
2022-08-16T21:17:53.786Z,99667.59
2022-08-16T21:20:22.699Z,99673.81
2022-08-16T21:22:55.276Z,99670.59
2022-08-16T21:25:23.497Z,99674.28
2022-08-16T21:28:39.523Z,99677.50
2022-08-16T21:30:39.471Z,99676.66
2022-08-16T21:33:12.360Z,99681.16
2022-08-16T21:35:41.007Z,99680.00
2022-08-16T21:38:28.665Z,99684.63
2022-08-16T21:40:54.267Z,99689.31
2022-08-16T21:43:22.902Z,99690.34
2022-08-16T21:45:54.855Z,99696.09
2022-08-16T21:48:32.645Z,99688.31
2022-08-16T21:51:06.794Z,99695.59
2022-08-16T21:53:33.771Z,99695.44
2022-08-16T21:56:00.914Z,99692.41
2022-08-16T21:58:28.593Z,99691.88
2022-08-16T22:00:55.908Z,99687.94
2022-08-16T22:03:23.502Z,99691.81
2022-08-16T22:06:12.154Z,99693.84
2022-08-16T22:08:39.509Z,99694.94
2022-08-16T22:11:15.427Z,99701.78
2022-08-16T22:13:41.993Z,99697.47
2022-08-16T22:16:15.815Z,99689.56
2022-08-16T22:18:42.314Z,99695.19
2022-08-16T22:21:18.873Z,99702.44
2022-08-16T22:23:45.432Z,99704.00
2022-08-16T22:26:29.943Z,99695.78
2022-08-16T22:29:01.926Z,99694.63
2022-08-16T22:31:28.822Z,99696.13
2022-08-16T22:33:58.609Z,99702.75
2022-08-16T22:36:28.602Z,99700.41
2022-08-16T22:39:00.625Z,99702.28
2022-08-16T22:41:28.646Z,99704.69
2022-08-16T22:43:55.663Z,99711.06
2022-08-16T22:46:22.549Z,99703.75
2022-08-16T22:48:52.210Z,99701.47
2022-08-16T22:51:20.844Z,99694.34
2022-08-16T22:53:47.640Z,99701.75
2022-08-16T22:56:15.705Z,99709.31
2022-08-16T22:58:42.442Z,99702.22
2022-08-16T23:01:10.455Z,99701.44
2022-08-16T23:03:37.774Z,99708.19
2022-08-16T23:06:05.353Z,99705.66
2022-08-16T23:08:39.859Z,99710.97
2022-08-16T23:11:13.448Z,99714.13
2022-08-16T23:13:50.710Z,99705.94
2022-08-16T23:16:24.862Z,99701.84
2022-08-16T23:18:59.503Z,99702.53
2022-08-16T23:21:26.499Z,99703.19
2022-08-16T23:23:53.981Z,99700.06
2022-08-16T23:26:45.206Z,99700.03
2022-08-16T23:29:07.600Z,99700.09
2022-08-16T23:31:49.166Z,99697.00
2022-08-16T23:34:16.066Z,99699.09
2022-08-16T23:36:42.591Z,99708.13
2022-08-16T23:39:09.182Z,99697.41
2022-08-16T23:41:35.780Z,99699.69
2022-08-16T23:44:02.419Z,99702.22
2022-08-16T23:46:49.427Z,99698.00
2022-08-16T23:49:58.438Z,99699.69
2022-08-16T23:52:09.902Z,99700.75
2022-08-16T23:54:36.568Z,99697.56
2022-08-16T23:57:03.361Z,99707.03
2022-08-16T23:59:29.932Z,99696.09
